createdAt,value
2022-08-29T00:01:59.296Z,12.67
2022-08-29T00:04:25.989Z,12.61
2022-08-29T00:06:52.744Z,12.62
2022-08-29T00:09:19.206Z,12.54
2022-08-29T00:11:46.566Z,12.51
2022-08-29T00:14:21.013Z,12.48
2022-08-29T00:16:50.535Z,12.36
2022-08-29T00:19:17.246Z,12.30
2022-08-29T00:21:43.886Z,12.38
2022-08-29T00:24:10.695Z,12.45
2022-08-29T00:26:37.167Z,12.48
2022-08-29T00:29:04.265Z,12.49
2022-08-29T00:31:30.763Z,12.55
2022-08-29T00:33:57.699Z,12.56
2022-08-29T00:36:26.243Z,12.57
2022-08-29T00:38:58.398Z,12.50
2022-08-29T00:41:24.972Z,12.36
2022-08-29T00:43:51.717Z,12.19
2022-08-29T00:46:46.578Z,11.99
2022-08-29T00:49:40.054Z,11.84
2022-08-29T00:52:35.718Z,11.86
2022-08-29T00:55:11.337Z,11.91
2022-08-29T00:57:40.741Z,12.12
2022-08-29T01:00:08.822Z,12.12
2022-08-29T01:02:40.326Z,12.12
2022-08-29T01:05:13.302Z,12.17
2022-08-29T01:07:41.670Z,12.19
2022-08-29T01:10:13.406Z,12.03
2022-08-29T01:12:41.044Z,12.08
2022-08-29T01:15:10.770Z,12.07
2022-08-29T01:17:45.411Z,11.90
2022-08-29T01:20:24.234Z,11.92
2022-08-29T01:23:01.108Z,11.92
2022-08-29T01:25:33.481Z,11.89
2022-08-29T01:28:06.627Z,11.87
2022-08-29T01:30:33.615Z,11.93
2022-08-29T01:33:00.952Z,11.97
2022-08-29T01:35:30.175Z,11.98
2022-08-29T01:37:56.851Z,12.06
2022-08-29T01:40:28.989Z,11.96
2022-08-29T01:42:57.538Z,11.93
2022-08-29T01:45:24.222Z,11.93
2022-08-29T01:47:50.727Z,11.86
2022-08-29T01:50:17.313Z,11.80
2022-08-29T01:52:43.916Z,11.72
2022-08-29T01:55:11.096Z,11.76
2022-08-29T01:57:40.600Z,11.58
2022-08-29T02:00:09.643Z,11.46
2022-08-29T02:02:37.225Z,11.35
2022-08-29T02:05:05.773Z,11.37
2022-08-29T02:07:32.440Z,11.35
2022-08-29T02:09:59.630Z,11.31
2022-08-29T02:12:26.227Z,11.27
2022-08-29T02:14:52.983Z,11.38
2022-08-29T02:17:19.889Z,11.20
2022-08-29T02:19:46.497Z,11.28
2022-08-29T02:22:14.067Z,11.26
2022-08-29T02:24:41.027Z,11.16
2022-08-29T02:27:08.775Z,11.13
2022-08-29T02:29:38.390Z,11.12
2022-08-29T02:32:08.420Z,11.11
2022-08-29T02:34:35.454Z,11.25
2022-08-29T02:37:02.693Z,11.23
2022-08-29T02:39:29.572Z,11.18
2022-08-29T02:41:56.703Z,11.21
2022-08-29T02:44:23.404Z,11.17
2022-08-29T02:46:50.262Z,11.23
2022-08-29T02:49:16.942Z,11.37
2022-08-29T02:51:45.035Z,11.42
2022-08-29T02:54:12.553Z,11.52
2022-08-29T02:56:40.009Z,11.43
2022-08-29T02:59:08.336Z,11.41
2022-08-29T03:01:38.416Z,11.46
2022-08-29T03:04:05.583Z,11.57
2022-08-29T03:06:32.050Z,11.61
2022-08-29T03:08:58.505Z,11.59
2022-08-29T03:11:25.085Z,11.52
2022-08-29T03:13:52.042Z,11.56
2022-08-29T03:16:24.182Z,11.59
2022-08-29T03:18:50.829Z,11.68
2022-08-29T03:21:22.476Z,11.73
2022-08-29T03:23:51.692Z,11.79
2022-08-29T03:26:19.248Z,11.78
2022-08-29T03:28:45.889Z,11.74
2022-08-29T03:31:13.420Z,11.77
2022-08-29T03:33:39.997Z,11.80
2022-08-29T03:36:14.314Z,11.80
2022-08-29T03:38:43.531Z,11.93
2022-08-29T03:41:10.740Z,11.85
2022-08-29T03:43:37.506Z,11.85
2022-08-29T03:46:04.275Z,11.86
2022-08-29T03:48:30.953Z,11.92
2022-08-29T03:50:57.860Z,12.01
2022-08-29T03:53:24.363Z,11.96
2022-08-29T03:55:50.991Z,12.11
2022-08-29T03:58:17.999Z,12.07
2022-08-29T04:00:46.759Z,12.17
2022-08-29T04:03:13.691Z,12.21
2022-08-29T04:05:40.854Z,12.26
2022-08-29T04:08:08.486Z,12.22
2022-08-29T04:10:38.199Z,12.25
2022-08-29T04:13:06.320Z,12.25
2022-08-29T04:15:33.396Z,12.27
2022-08-29T04:18:02.393Z,12.48
2022-08-29T04:20:32.841Z,12.37
2022-08-29T04:22:59.662Z,12.54
2022-08-29T04:25:27.962Z,12.46
2022-08-29T04:27:55.557Z,12.52
2022-08-29T04:30:25.185Z,12.41
2022-08-29T04:32:52.608Z,12.49
2022-08-29T04:35:19.733Z,12.52
2022-08-29T04:37:46.810Z,12.58
2022-08-29T04:40:16.190Z,12.49
2022-08-29T04:42:43.623Z,12.58
2022-08-29T04:45:12.554Z,12.62
2022-08-29T04:47:39.896Z,12.68
2022-08-29T04:50:07.881Z,12.70
2022-08-29T04:52:34.394Z,12.71
2022-08-29T04:55:01.021Z,12.85
2022-08-29T04:57:27.573Z,12.76
2022-08-29T04:59:58.856Z,12.70
2022-08-29T05:02:27.736Z,12.67
2022-08-29T05:04:56.454Z,12.75
2022-08-29T05:07:26.031Z,12.71
2022-08-29T05:09:58.730Z,12.77
2022-08-29T05:12:26.117Z,12.83
2022-08-29T05:14:54.090Z,12.95
2022-08-29T05:17:21.648Z,12.87
2022-08-29T05:19:49.180Z,12.97
2022-08-29T05:22:20.033Z,13.01
2022-08-29T05:24:47.543Z,13.00
2022-08-29T05:27:16.928Z,13.19
2022-08-29T05:29:46.698Z,13.23
2022-08-29T05:32:18.743Z,13.23
2022-08-29T05:34:46.512Z,13.27
2022-08-29T05:37:16.004Z,13.36
2022-08-29T05:39:43.007Z,13.44
2022-08-29T05:42:12.111Z,13.56
2022-08-29T05:44:40.064Z,13.50
2022-08-29T05:47:09.809Z,13.56
2022-08-29T05:49:37.967Z,13.61
2022-08-29T05:52:05.884Z,13.67
2022-08-29T05:54:34.349Z,13.70
2022-08-29T05:57:01.069Z,13.77
2022-08-29T05:59:27.579Z,13.72
2022-08-29T06:01:54.156Z,13.83
2022-08-29T06:04:20.823Z,13.82
2022-08-29T06:06:47.392Z,13.88
2022-08-29T06:09:14.262Z,13.92
2022-08-29T06:11:40.998Z,13.95
2022-08-29T06:14:07.612Z,14.06
2022-08-29T06:16:34.255Z,14.05
2022-08-29T06:19:01.397Z,14.03
2022-08-29T06:21:27.938Z,14.07
2022-08-29T06:23:54.610Z,13.94
2022-08-29T06:26:21.116Z,14.08
2022-08-29T06:28:47.705Z,14.16
2022-08-29T06:31:22.788Z,14.22
2022-08-29T06:33:55.062Z,14.18
2022-08-29T06:36:21.727Z,14.23
2022-08-29T06:38:48.190Z,14.36
2022-08-29T06:41:16.843Z,14.59
2022-08-29T06:43:44.163Z,14.60
2022-08-29T06:46:32.661Z,14.86
2022-08-29T06:49:01.746Z,15.06
2022-08-29T06:51:32.948Z,15.07
2022-08-29T06:54:00.770Z,15.10
2022-08-29T06:56:28.810Z,14.98
2022-08-29T06:58:56.175Z,14.89
2022-08-29T07:01:24.009Z,14.84
2022-08-29T07:03:53.841Z,14.93
2022-08-29T07:06:20.580Z,14.86
2022-08-29T07:08:55.838Z,14.93
2022-08-29T07:11:24.195Z,14.84
2022-08-29T07:13:50.754Z,14.97
2022-08-29T07:16:18.840Z,15.06
2022-08-29T07:18:46.772Z,15.11
2022-08-29T07:21:20.298Z,15.18
2022-08-29T07:23:48.146Z,15.28
2022-08-29T07:26:38.666Z,15.39
2022-08-29T07:29:10.123Z,15.51
2022-08-29T07:31:39.156Z,15.55
2022-08-29T07:34:06.486Z,15.57
2022-08-29T07:36:34.372Z,15.53
2022-08-29T07:39:02.375Z,15.40
2022-08-29T07:41:30.288Z,15.40
2022-08-29T07:43:57.721Z,15.55
2022-08-29T07:46:25.556Z,15.49
2022-08-29T07:48:52.822Z,15.57
2022-08-29T07:51:22.926Z,15.61
2022-08-29T07:53:50.661Z,15.52
2022-08-29T07:56:43.104Z,15.65
2022-08-29T07:59:10.297Z,15.81
2022-08-29T08:01:37.025Z,16.00
2022-08-29T08:04:04.389Z,16.13
2022-08-29T08:06:31.020Z,16.15
2022-08-29T08:09:03.354Z,16.09
2022-08-29T08:11:29.856Z,15.99
2022-08-29T08:13:57.542Z,15.85
2022-08-29T08:16:26.680Z,15.90
2022-08-29T08:18:53.984Z,15.90
2022-08-29T08:21:20.801Z,15.77
2022-08-29T08:23:47.348Z,15.90
2022-08-29T08:26:14.387Z,15.97
2022-08-29T08:28:42.204Z,15.90
2022-08-29T08:31:11.144Z,15.94
2022-08-29T08:33:42.263Z,15.95
2022-08-29T08:36:30.571Z,16.04
2022-08-29T08:38:59.511Z,16.12
2022-08-29T08:42:04.306Z,16.13
2022-08-29T08:44:50.669Z,16.34
2022-08-29T08:47:28.833Z,16.39
2022-08-29T08:50:12.313Z,16.40
2022-08-29T08:52:58.664Z,16.35
2022-08-29T08:55:49.289Z,16.45
2022-08-29T08:58:34.321Z,16.68
2022-08-29T09:01:23.277Z,16.75
2022-08-29T09:04:06.093Z,16.78
2022-08-29T09:06:55.080Z,16.72
2022-08-29T09:09:46.497Z,16.72
2022-08-29T09:12:25.165Z,16.76
2022-08-29T09:14:51.968Z,16.78
2022-08-29T09:17:27.761Z,16.94
2022-08-29T09:19:56.192Z,17.17
2022-08-29T09:22:27.416Z,17.30
2022-08-29T09:25:07.353Z,17.43
2022-08-29T09:27:35.758Z,17.36
2022-08-29T09:30:14.017Z,17.50
2022-08-29T09:32:57.517Z,17.80
2022-08-29T09:35:42.298Z,17.90
2022-08-29T09:38:18.121Z,17.94
2022-08-29T09:41:03.766Z,17.99
2022-08-29T09:43:44.160Z,18.18
2022-08-29T09:46:11.433Z,18.38
2022-08-29T09:48:44.518Z,18.46
2022-08-29T09:51:20.487Z,18.65
2022-08-29T09:53:47.066Z,18.88
2022-08-29T09:56:21.055Z,18.68
2022-08-29T09:59:02.223Z,18.91
2022-08-29T10:01:29.869Z,19.09
2022-08-29T10:04:00.705Z,18.78
2022-08-29T10:06:32.134Z,18.81
2022-08-29T10:09:05.971Z,18.95
2022-08-29T10:11:54.255Z,19.10
2022-08-29T10:14:36.194Z,19.44
2022-08-29T10:17:56.689Z,19.83
2022-08-29T10:20:29.052Z,19.88
2022-08-29T10:23:04.707Z,20.03
2022-08-29T10:25:41.481Z,20.35
2022-08-29T10:28:16.972Z,20.29
2022-08-29T10:30:57.079Z,20.48
2022-08-29T10:33:57.376Z,20.14
2022-08-29T10:36:45.255Z,20.31
2022-08-29T10:39:32.798Z,20.44
2022-08-29T10:42:07.739Z,20.33
2022-08-29T10:45:09.873Z,20.40
2022-08-29T10:48:00.483Z,20.77
2022-08-29T10:50:44.572Z,20.94
2022-08-29T10:53:31.418Z,21.20
2022-08-29T10:56:05.891Z,21.07
2022-08-29T10:58:45.632Z,21.33
2022-08-29T11:01:22.275Z,21.62
2022-08-29T11:03:52.996Z,21.65
2022-08-29T11:06:27.594Z,21.81
2022-08-29T11:09:24.895Z,21.57
2022-08-29T11:12:10.458Z,21.54
2022-08-29T11:14:52.122Z,21.44
2022-08-29T11:17:21.646Z,21.32
2022-08-29T11:19:55.213Z,21.21
2022-08-29T11:22:26.911Z,21.44
2022-08-29T11:25:13.173Z,21.51
2022-08-29T11:28:06.473Z,21.75
2022-08-29T11:30:56.730Z,21.71
2022-08-29T11:33:41.324Z,21.66
2022-08-29T11:36:39.303Z,21.50
2022-08-29T11:39:24.205Z,21.52
2022-08-29T11:41:58.630Z,21.53
2022-08-29T11:44:31.186Z,21.71
2022-08-29T11:46:58.818Z,21.80
2022-08-29T11:49:46.661Z,22.16
2022-08-29T11:52:22.308Z,22.23
2022-08-29T11:54:54.578Z,22.34
2022-08-29T11:57:21.005Z,22.39
2022-08-29T11:59:56.545Z,22.46
2022-08-29T12:02:31.847Z,22.42
2022-08-29T12:05:16.591Z,22.44
2022-08-29T12:07:49.889Z,22.17
2022-08-29T12:10:25.293Z,22.18
2022-08-29T12:12:53.872Z,22.27
2022-08-29T12:15:29.646Z,22.24
2022-08-29T12:18:03.485Z,22.07
2022-08-29T12:20:30.175Z,22.31
2022-08-29T12:22:56.622Z,22.37
2022-08-29T12:25:44.965Z,22.07
2022-08-29T12:28:40.851Z,22.30
2022-08-29T12:31:13.895Z,22.36
2022-08-29T12:34:05.620Z,22.23
2022-08-29T12:36:53.449Z,22.38
2022-08-29T12:39:22.941Z,22.62
2022-08-29T12:42:01.491Z,22.53
2022-08-29T12:44:34.705Z,22.48
2022-08-29T12:47:07.127Z,22.66
2022-08-29T12:49:53.067Z,23.00
2022-08-29T12:52:32.324Z,23.07
2022-08-29T12:55:19.311Z,23.43
2022-08-29T12:57:47.405Z,23.54
2022-08-29T13:00:21.108Z,23.62
2022-08-29T13:03:14.951Z,23.83
2022-08-29T13:05:42.707Z,23.77
2022-08-29T13:08:26.473Z,23.72
2022-08-29T13:10:59.441Z,23.55
2022-08-29T13:13:27.943Z,23.71
2022-08-29T13:15:57.619Z,23.81
2022-08-29T13:18:24.461Z,23.82
2022-08-29T13:21:26.311Z,24.11
2022-08-29T13:24:16.629Z,24.40
2022-08-29T13:27:03.104Z,24.43
2022-08-29T13:29:40.226Z,24.65
2022-08-29T13:32:23.799Z,24.83
2022-08-29T13:35:15.152Z,24.97
2022-08-29T13:37:44.852Z,24.97
2022-08-29T13:40:37.129Z,25.12
2022-08-29T13:43:06.097Z,24.74
2022-08-29T13:45:34.005Z,24.60
2022-08-29T13:48:20.242Z,24.45
2022-08-29T13:53:19.219Z,23.86
2022-08-29T13:55:45.858Z,23.81
2022-08-29T13:58:14.720Z,23.82
2022-08-29T14:00:41.841Z,23.80
2022-08-29T14:03:09.361Z,23.72
2022-08-29T14:05:36.877Z,23.52
2022-08-29T14:08:05.327Z,23.33
2022-08-29T14:10:31.926Z,23.29
2022-08-29T14:12:58.605Z,23.15
2022-08-29T14:15:25.110Z,23.13
2022-08-29T14:17:52.667Z,23.23
2022-08-29T14:20:19.526Z,23.32
2022-08-29T14:22:47.039Z,23.52
2022-08-29T14:25:16.146Z,23.65
2022-08-29T14:27:43.583Z,23.66
2022-08-29T14:30:12.683Z,23.67
2022-08-29T14:32:39.180Z,23.67
2022-08-29T14:35:07.343Z,23.57
2022-08-29T14:37:34.851Z,23.68
2022-08-29T14:40:02.051Z,23.56
2022-08-29T14:42:30.318Z,23.65
2022-08-29T14:44:56.853Z,23.70
2022-08-29T14:47:23.385Z,23.88
2022-08-29T14:49:49.892Z,24.15
2022-08-29T14:52:16.600Z,24.17
2022-08-29T14:54:43.947Z,24.09
2022-08-29T14:57:12.338Z,23.70
2022-08-29T14:59:39.727Z,23.58
2022-08-29T15:02:10.911Z,23.53
2022-08-29T15:04:38.179Z,23.47
2022-08-29T15:07:10.741Z,23.35
2022-08-29T15:09:38.022Z,23.47
2022-08-29T15:12:05.233Z,23.51
2022-08-29T15:14:32.046Z,23.55
2022-08-29T15:16:58.592Z,23.55
2022-08-29T15:19:53.801Z,23.66
2022-08-29T15:22:12.567Z,23.67
2022-08-29T15:24:39.620Z,23.52
2022-08-29T15:27:06.634Z,23.47
2022-08-29T15:29:34.044Z,23.48
2022-08-29T15:32:00.554Z,23.65
2022-08-29T15:34:29.251Z,23.70
2022-08-29T15:36:56.800Z,23.70
2022-08-29T15:39:27.938Z,23.81
2022-08-29T15:41:55.937Z,23.97
2022-08-29T15:44:22.626Z,24.08
2022-08-29T15:46:50.780Z,24.12
2022-08-29T15:49:19.185Z,24.22
2022-08-29T15:51:46.192Z,24.20
2022-08-29T15:54:13.638Z,24.21
2022-08-29T15:56:40.810Z,24.34
2022-08-29T15:59:17.035Z,24.43
2022-08-29T16:01:50.928Z,24.44
2022-08-29T16:04:20.628Z,24.42
2022-08-29T16:06:47.318Z,24.47
2022-08-29T16:09:15.962Z,24.55
2022-08-29T16:11:44.425Z,24.47
2022-08-29T16:16:58.618Z,24.22
2022-08-29T16:19:25.110Z,24.10
2022-08-29T16:21:53.225Z,23.90
2022-08-29T16:24:21.720Z,23.88
2022-08-29T16:26:48.370Z,23.75
2022-08-29T16:29:14.849Z,23.78
2022-08-29T16:31:48.092Z,23.81
2022-08-29T16:34:14.688Z,23.92
2022-08-29T16:36:42.603Z,23.83
2022-08-29T16:39:09.709Z,23.83
2022-08-29T16:41:36.443Z,23.84
2022-08-29T16:44:05.020Z,23.89
2022-08-29T16:46:32.080Z,23.77
2022-08-29T16:48:58.581Z,23.66
2022-08-29T16:51:27.059Z,23.63
2022-08-29T16:53:54.427Z,23.53
2022-08-29T16:56:21.429Z,23.33
2022-08-29T16:59:00.274Z,23.16
2022-08-29T17:01:33.790Z,23.03
2022-08-29T17:04:02.691Z,22.98
2022-08-29T17:06:31.321Z,22.78
2022-08-29T17:08:58.874Z,22.68
2022-08-29T17:11:25.626Z,22.57
2022-08-29T17:13:54.251Z,22.51
2022-08-29T17:16:21.352Z,22.42
2022-08-29T17:18:48.505Z,22.42
2022-08-29T17:21:15.811Z,22.35
2022-08-29T17:23:43.374Z,22.43
2022-08-29T17:26:12.780Z,22.33
2022-08-29T17:28:40.730Z,22.34
2022-08-29T17:31:08.128Z,22.36
2022-08-29T17:33:34.771Z,22.22
2022-08-29T17:36:02.932Z,22.08
2022-08-29T17:38:31.032Z,22.10
2022-08-29T17:40:59.996Z,21.98
2022-08-29T17:43:27.887Z,21.97
2022-08-29T17:45:55.413Z,21.83
2022-08-29T17:48:22.537Z,21.75
2022-08-29T17:50:49.991Z,21.68
2022-08-29T17:53:18.407Z,21.57
2022-08-29T17:55:46.033Z,21.46
2022-08-29T17:58:14.583Z,21.39
2022-08-29T18:00:41.671Z,21.31
2022-08-29T18:03:08.220Z,21.30
2022-08-29T18:05:34.815Z,21.24
2022-08-29T18:08:03.264Z,21.21
2022-08-29T18:10:29.910Z,21.10
2022-08-29T18:12:56.944Z,20.98
2022-08-29T18:15:23.578Z,20.96
2022-08-29T18:17:51.564Z,20.92
2022-08-29T18:20:21.515Z,20.82
2022-08-29T18:22:49.688Z,20.70
2022-08-29T18:25:17.218Z,20.60
2022-08-29T18:27:50.192Z,20.41
2022-08-29T18:30:17.083Z,20.30
2022-08-29T18:32:43.854Z,20.23
2022-08-29T18:35:11.750Z,20.10
2022-08-29T18:37:38.623Z,20.09
2022-08-29T18:40:07.556Z,20.11
2022-08-29T18:42:40.784Z,19.91
2022-08-29T18:45:09.494Z,19.90
2022-08-29T18:47:36.733Z,19.78
2022-08-29T18:50:24.959Z,19.72
2022-08-29T18:52:52.546Z,19.61
2022-08-29T18:55:23.339Z,19.55
2022-08-29T18:57:51.138Z,19.48
2022-08-29T19:00:21.262Z,19.44
2022-08-29T19:02:48.885Z,19.38
2022-08-29T19:05:17.147Z,19.33
2022-08-29T19:07:43.732Z,19.25
2022-08-29T19:10:12.790Z,19.18
2022-08-29T19:12:39.672Z,19.14
2022-08-29T19:15:08.136Z,19.12
2022-08-29T19:17:35.889Z,19.02
2022-08-29T19:20:21.081Z,18.94
2022-08-29T19:22:47.682Z,18.98
2022-08-29T19:25:14.542Z,19.14
2022-08-29T19:27:44.087Z,18.94
2022-08-29T19:30:38.155Z,19.00
2022-08-29T19:33:06.424Z,18.88
2022-08-29T19:35:33.084Z,18.86
2022-08-29T19:37:59.861Z,18.78
2022-08-29T19:40:27.203Z,18.86
2022-08-29T19:42:55.738Z,18.69
2022-08-29T19:45:23.727Z,18.64
2022-08-29T19:47:52.164Z,18.69
2022-08-29T19:50:21.202Z,18.62
2022-08-29T19:52:48.204Z,18.64
2022-08-29T19:55:17.751Z,18.64
2022-08-29T19:57:47.342Z,18.50
2022-08-29T20:00:17.283Z,18.42
2022-08-29T20:02:45.876Z,18.42
2022-08-29T20:05:13.738Z,18.31
2022-08-29T20:07:42.061Z,18.20
2022-08-29T20:10:10.125Z,18.29
2022-08-29T20:12:36.957Z,18.24
2022-08-29T20:15:05.817Z,18.19
2022-08-29T20:17:34.437Z,18.14
2022-08-29T20:20:12.287Z,18.05
2022-08-29T20:22:38.903Z,17.98
2022-08-29T20:25:06.995Z,17.85
2022-08-29T20:27:34.794Z,17.91
2022-08-29T20:30:03.395Z,17.87
2022-08-29T20:32:30.440Z,17.85
2022-08-29T20:34:57.048Z,17.80
2022-08-29T20:37:25.818Z,17.82
2022-08-29T20:39:53.208Z,17.75
2022-08-29T20:42:22.225Z,17.68
2022-08-29T20:44:48.718Z,17.57
2022-08-29T20:47:20.022Z,17.53
2022-08-29T20:49:48.255Z,17.46
2022-08-29T20:52:18.505Z,17.41
2022-08-29T20:54:46.255Z,17.36
2022-08-29T20:57:14.773Z,17.42
2022-08-29T20:59:42.940Z,17.28
2022-08-29T21:02:10.008Z,17.25
2022-08-29T21:04:56.038Z,17.21
2022-08-29T21:07:22.871Z,17.14
2022-08-29T21:09:50.403Z,17.12
2022-08-29T21:12:18.609Z,17.04
2022-08-29T21:14:45.114Z,17.15
2022-08-29T21:17:18.082Z,17.03
2022-08-29T21:19:45.362Z,16.99
2022-08-29T21:22:13.564Z,16.90
2022-08-29T21:24:40.955Z,16.85
2022-08-29T21:27:07.592Z,16.74
2022-08-29T21:29:34.331Z,16.75
2022-08-29T21:32:00.940Z,16.71
2022-08-29T21:34:27.401Z,16.63
2022-08-29T21:36:54.478Z,16.64
2022-08-29T21:39:27.956Z,16.65
2022-08-29T21:42:02.968Z,16.62
2022-08-29T21:44:30.361Z,16.66
2022-08-29T21:47:03.148Z,16.60
2022-08-29T21:49:32.572Z,16.52
2022-08-29T21:51:59.333Z,16.63
2022-08-29T21:54:26.675Z,16.50
2022-08-29T21:56:53.586Z,16.36
2022-08-29T21:59:21.577Z,16.33
2022-08-29T22:01:52.732Z,16.25
2022-08-29T22:04:28.528Z,16.33
2022-08-29T22:06:57.400Z,16.21
2022-08-29T22:09:23.954Z,16.19
2022-08-29T22:11:52.046Z,16.11
2022-08-29T22:14:43.240Z,16.06
2022-08-29T22:17:11.284Z,16.00
2022-08-29T22:19:37.781Z,16.03
2022-08-29T22:22:06.385Z,16.07
2022-08-29T22:24:33.308Z,15.99
2022-08-29T22:26:59.931Z,15.97
2022-08-29T22:29:26.418Z,15.90
2022-08-29T22:31:53.292Z,15.83
2022-08-29T22:34:19.828Z,15.86
2022-08-29T22:36:46.366Z,15.94
2022-08-29T22:39:13.296Z,15.91
2022-08-29T22:41:44.195Z,15.84
2022-08-29T22:44:59.593Z,15.79
2022-08-29T22:47:00.497Z,15.83
2022-08-29T22:49:33.357Z,15.84
2022-08-29T22:52:00.331Z,15.76
2022-08-29T22:54:36.511Z,15.68
2022-08-29T22:57:05.798Z,15.63
2022-08-29T22:59:33.390Z,15.48
2022-08-29T23:02:01.323Z,15.38
2022-08-29T23:04:29.476Z,15.37
2022-08-29T23:06:56.061Z,15.41
2022-08-29T23:09:22.654Z,15.49
2022-08-29T23:11:50.320Z,15.57
2022-08-29T23:14:20.541Z,15.52
2022-08-29T23:16:48.641Z,15.51
2022-08-29T23:19:15.207Z,15.51
2022-08-29T23:21:43.250Z,15.59
2022-08-29T23:24:10.013Z,15.54
2022-08-29T23:26:36.971Z,15.47
2022-08-29T23:29:04.069Z,15.48
2022-08-29T23:31:30.670Z,15.48
2022-08-29T23:33:57.254Z,15.47
2022-08-29T23:36:23.777Z,15.45
2022-08-29T23:38:52.731Z,15.42
2022-08-29T23:41:19.629Z,15.37
2022-08-29T23:43:46.492Z,15.35
2022-08-29T23:46:13.950Z,15.42
2022-08-29T23:48:40.926Z,15.50
2022-08-29T23:51:12.242Z,15.48
2022-08-29T23:53:38.739Z,15.47
2022-08-29T23:56:14.121Z,15.47
2022-08-29T23:58:42.115Z,15.48
